Time;durP1;ratioP1;P1;durP2;ratioP2;P2;SDS_P1;SDS_P2;PMS_P1;PMS_P2;Temp;Humidity;BMP_temperature;BMP_pressure;BME280_temperature;BME280_humidity;BME280_pressure;Samples;Min_cycle;Max_cycle;Signal;HPM_P1;HPM_P2
2024/02/25 00:00:20;;;;;;;4.60;4.30;;;5.20;99.90;;;;;;5072323;28;20174;-73
2024/02/25 00:02:46;;;;;;;4.83;4.43;;;5.30;99.90;;;;;;5072902;28;20181;-73
2024/02/25 00:05:12;;;;;;;4.73;4.40;;;5.30;99.90;;;;;;5073647;28;20186;-73
2024/02/25 00:07:37;;;;;;;5.03;4.50;;;5.30;99.90;;;;;;5076248;28;20232;-73
2024/02/25 00:10:04;;;;;;;4.83;4.23;;;5.30;99.90;;;;;;5075828;28;20201;-73
2024/02/25 00:12:29;;;;;;;4.30;4.00;;;5.40;99.90;;;;;;5073594;28;20682;-73
2024/02/25 00:14:55;;;;;;;4.87;4.47;;;5.40;99.90;;;;;;5053395;28;20213;-73
2024/02/25 00:17:21;;;;;;;4.50;4.10;;;5.40;99.90;;;;;;5072911;28;20238;-73
2024/02/25 00:19:46;;;;;;;5.00;4.50;;;5.40;99.90;;;;;;5072754;28;20202;-73
2024/02/25 00:22:12;;;;;;;4.90;4.50;;;5.40;99.90;;;;;;5072699;28;20158;-73
2024/02/25 00:24:38;;;;;;;4.93;4.50;;;5.40;99.90;;;;;;5073081;28;20166;-73
2024/02/25 00:27:04;;;;;;;4.63;4.30;;;5.40;99.90;;;;;;5072840;28;20186;-73
2024/02/25 00:29:30;;;;;;;4.70;4.30;;;5.40;99.90;;;;;;5049629;28;20501;-73
2024/02/25 00:31:55;;;;;;;4.20;4.00;;;5.40;99.90;;;;;;5054192;28;20272;-74
2024/02/25 00:34:21;;;;;;;4.50;4.20;;;5.30;99.90;;;;;;5053499;28;20636;-73
2024/02/25 00:36:48;;;;;;;4.80;4.50;;;5.30;99.90;;;;;;5054178;28;20213;-73
2024/02/25 00:39:16;;;;;;;4.20;4.00;;;5.30;99.90;;;;;;5053916;28;20194;-73
2024/02/25 00:41:43;;;;;;;4.77;4.40;;;5.30;99.90;;;;;;5053694;28;20163;-74
2024/02/25 00:44:08;;;;;;;4.33;4.00;;;5.40;99.90;;;;;;5069648;28;20174;-74
2024/02/25 00:46:34;;;;;;;3.87;3.67;;;5.40;99.90;;;;;;5073195;28;20701;-73
2024/02/25 00:49:00;;;;;;;4.53;4.10;;;5.50;99.90;;;;;;5073745;28;20181;-73
2024/02/25 00:51:26;;;;;;;5.10;3.70;;;5.50;99.90;;;;;;5073161;28;20252;-73
2024/02/25 00:53:52;;;;;;;4.30;4.00;;;5.60;99.90;;;;;;5073297;28;20244;-73
2024/02/25 00:56:17;;;;;;;4.20;3.90;;;5.60;99.90;;;;;;5072744;28;20222;-73
2024/02/25 00:58:43;;;;;;;4.10;3.90;;;5.60;99.90;;;;;;5057511;28;20607;-73
2024/02/25 01:01:14;;;;;;;4.10;3.90;;;5.60;99.90;;;;;;5034681;28;20196;-74
2024/02/25 01:03:42;;;;;;;4.30;3.90;;;5.70;99.90;;;;;;5051885;28;20162;-73
2024/02/25 01:06:07;;;;;;;4.27;3.97;;;5.70;99.90;;;;;;5052745;28;20598;-73
2024/02/25 01:08:36;;;;;;;5.43;4.00;;;5.70;99.90;;;;;;5052633;28;20174;-73
2024/02/25 01:11:02;;;;;;;4.23;3.83;;;5.80;99.90;;;;;;5059152;28;20170;-73
2024/02/25 01:13:27;;;;;;;9.80;4.07;;;5.80;99.90;;;;;;5072629;28;20166;-72
2024/02/25 01:15:54;;;;;;;4.20;3.87;;;5.80;99.90;;;;;;5073340;28;20197;-73
2024/02/25 01:18:20;;;;;;;4.20;3.90;;;5.80;99.90;;;;;;5054746;28;20225;-73
2024/02/25 01:20:45;;;;;;;4.33;4.13;;;5.80;99.90;;;;;;5076022;28;20166;-73
2024/02/25 01:23:11;;;;;;;4.10;3.90;;;5.70;99.90;;;;;;5072680;28;20177;-73
2024/02/25 01:25:37;;;;;;;4.33;4.03;;;5.70;99.90;;;;;;5065641;28;20191;-72
2024/02/25 01:28:02;;;;;;;4.10;3.90;;;5.70;99.90;;;;;;5034513;28;20171;-73
2024/02/25 01:30:28;;;;;;;4.30;4.00;;;5.60;99.90;;;;;;5052675;28;20257;-72
2024/02/25 01:32:54;;;;;;;4.37;3.97;;;5.60;99.90;;;;;;5052332;28;20171;-74
2024/02/25 01:35:19;;;;;;;4.27;3.87;;;5.60;99.90;;;;;;5052516;28;20701;-73
2024/02/25 01:37:45;;;;;;;3.90;3.60;;;5.60;99.90;;;;;;5052193;28;20171;-74
2024/02/25 01:40:11;;;;;;;4.20;3.90;;;5.60;99.90;;;;;;5068497;28;20255;-74
2024/02/25 01:42:37;;;;;;;4.43;4.17;;;5.50;99.90;;;;;;5072247;28;20262;-73
2024/02/25 01:45:03;;;;;;;4.03;3.70;;;5.50;99.90;;;;;;5072536;28;20511;-73
2024/02/25 01:47:29;;;;;;;3.70;3.50;;;5.50;99.90;;;;;;5076421;28;20178;-73
2024/02/25 01:49:55;;;;;;;5.03;3.93;;;5.50;99.90;;;;;;5076392;28;20185;-73
2024/02/25 01:52:24;;;;;;;4.70;4.37;;;5.60;99.90;;;;;;5055957;28;20231;-73
2024/02/25 01:54:50;;;;;;;3.97;3.77;;;5.60;99.90;;;;;;5056805;28;20691;-75
2024/02/25 01:57:16;;;;;;;4.20;3.90;;;5.60;99.90;;;;;;5056451;28;20166;-73
2024/02/25 01:59:43;;;;;;;5.73;4.20;;;5.60;99.90;;;;;;5073165;28;20212;-73
2024/02/25 02:02:13;;;;;;;4.00;3.80;;;5.50;99.90;;;;;;5076517;28;20170;-73
2024/02/25 02:04:40;;;;;;;4.00;3.80;;;5.50;99.90;;;;;;5076313;28;20166;-73
2024/02/25 02:07:07;;;;;;;4.03;3.70;;;5.50;99.90;;;;;;5069038;28;20195;-73
2024/02/25 02:09:32;;;;;;;4.63;4.20;;;5.50;99.90;;;;;;5056465;28;20179;-72
2024/02/25 02:11:58;;;;;;;4.23;4.03;;;5.50;99.90;;;;;;5055672;28;20206;-73
2024/02/25 02:14:24;;;;;;;4.50;4.10;;;5.50;99.90;;;;;;5055846;28;20194;-73
2024/02/25 02:16:50;;;;;;;4.40;4.00;;;5.50;99.90;;;;;;5055352;28;20210;-72
2024/02/25 02:19:15;;;;;;;5.27;4.00;;;5.50;99.90;;;;;;5055366;28;20198;-75
2024/02/25 02:21:41;;;;;;;4.17;3.97;;;5.40;99.90;;;;;;5061531;28;20174;-73
2024/02/25 02:24:07;;;;;;;3.93;3.73;;;5.30;99.90;;;;;;5058050;28;20242;-73
2024/02/25 02:26:32;;;;;;;4.00;3.70;;;5.30;99.90;;;;;;5075727;28;20247;-73
2024/02/25 02:28:58;;;;;;;4.10;3.80;;;5.30;99.90;;;;;;5075232;28;20201;-73
2024/02/25 02:31:24;;;;;;;3.90;3.70;;;5.30;99.90;;;;;;5075058;28;20189;-72
2024/02/25 02:33:51;;;;;;;3.87;3.67;;;5.30;99.90;;;;;;5075055;28;20611;-73
2024/02/25 02:36:17;;;;;;;3.80;3.50;;;5.30;99.90;;;;;;5058554;28;20214;-73
2024/02/25 02:38:43;;;;;;;3.70;3.50;;;5.40;99.90;;;;;;5037472;28;20201;-74
2024/02/25 02:41:10;;;;;;;3.37;3.27;;;5.40;99.90;;;;;;5055988;28;20167;-73
2024/02/25 02:43:36;;;;;;;3.80;3.50;;;5.50;99.90;;;;;;5037550;28;20240;-74
2024/02/25 02:46:02;;;;;;;3.40;3.30;;;5.50;99.90;;;;;;5054577;28;20194;-73
2024/02/25 02:48:28;;;;;;;3.30;3.20;;;5.60;99.90;;;;;;5054972;28;20178;-73
2024/02/25 02:50:53;;;;;;;3.40;3.30;;;5.60;99.90;;;;;;5069662;28;20231;-73
2024/02/25 02:53:19;;;;;;;3.60;3.40;;;5.70;99.90;;;;;;5074648;28;20253;-73
2024/02/25 02:55:45;;;;;;;3.80;3.10;;;5.80;99.90;;;;;;5074541;28;20243;-73
2024/02/25 02:58:11;;;;;;;3.13;3.03;;;5.80;99.90;;;;;;5074773;28;20627;-73
2024/02/25 03:00:37;;;;;;;3.40;3.20;;;5.80;99.90;;;;;;5057039;28;20170;-73
2024/02/25 03:03:03;;;;;;;3.63;3.43;;;5.80;99.90;;;;;;5068093;28;20543;-73
2024/02/25 03:05:28;;;;;;;3.90;3.70;;;5.80;99.90;;;;;;5055018;28;20285;-73
2024/02/25 03:07:54;;;;;;;3.77;3.57;;;5.80;99.90;;;;;;5056121;28;20643;-73
2024/02/25 03:10:21;;;;;;;3.50;3.30;;;5.80;99.90;;;;;;5054911;28;20254;-72
2024/02/25 03:12:47;;;;;;;3.67;3.50;;;5.80;99.90;;;;;;5054789;28;20179;-72
2024/02/25 03:15:13;;;;;;;3.47;3.27;;;5.80;99.90;;;;;;5054859;28;20194;-73
2024/02/25 03:17:40;;;;;;;3.40;3.20;;;5.80;99.90;;;;;;5053891;28;20547;-74
2024/02/25 03:20:07;;;;;;;3.20;3.10;;;5.80;99.90;;;;;;5053953;28;20202;-73
2024/02/25 03:22:33;;;;;;;3.40;3.20;;;5.80;99.90;;;;;;5069715;28;20170;-74
2024/02/25 03:24:59;;;;;;;3.47;3.27;;;5.80;99.90;;;;;;5073195;28;20182;-73
2024/02/25 03:27:25;;;;;;;3.40;3.20;;;5.80;99.90;;;;;;5056607;28;20634;-73
2024/02/25 03:29:50;;;;;;;3.30;3.20;;;5.80;99.90;;;;;;5058117;28;20183;-73
2024/02/25 03:32:16;;;;;;;3.40;3.20;;;5.80;99.90;;;;;;5053586;28;20615;-72
2024/02/25 03:34:42;;;;;;;3.20;3.10;;;5.80;99.90;;;;;;5054334;28;20261;-72
2024/02/25 03:37:07;;;;;;;3.47;3.27;;;5.80;99.90;;;;;;5095992;22;20230;-72
2024/02/25 03:39:33;;;;;;;3.10;3.00;;;5.80;99.90;;;;;;5073152;28;20206;-72
2024/02/25 03:41:58;;;;;;;3.57;3.37;;;5.80;99.90;;;;;;5073388;28;20253;-71
2024/02/25 03:44:26;;;;;;;3.50;3.30;;;5.80;99.90;;;;;;5073509;28;20182;-72
2024/02/25 03:46:51;;;;;;;3.43;3.23;;;5.80;99.90;;;;;;5073171;28;20192;-71
2024/02/25 03:49:17;;;;;;;3.20;3.10;;;5.80;99.90;;;;;;5073240;28;20588;-72
2024/02/25 03:51:44;;;;;;;3.43;3.33;;;5.80;99.90;;;;;;5072833;28;20666;-71
2024/02/25 03:54:09;;;;;;;3.30;3.20;;;5.80;99.90;;;;;;5072969;28;20166;-71
2024/02/25 03:56:35;;;;;;;3.60;3.40;;;5.80;99.90;;;;;;5067832;28;20187;-71
2024/02/25 03:59:00;;;;;;;4.50;3.30;;;5.80;99.90;;;;;;5052831;28;20198;-71
2024/02/25 04:01:26;;;;;;;3.30;3.20;;;5.80;99.90;;;;;;5053548;28;20179;-71
2024/02/25 04:03:52;;;;;;;3.80;3.60;;;5.80;99.90;;;;;;5071242;28;20175;-71
2024/02/25 04:06:18;;;;;;;3.67;3.47;;;5.80;99.90;;;;;;5072947;28;20209;-72
2024/02/25 04:08:43;;;;;;;3.87;3.57;;;5.80;99.90;;;;;;5072797;28;20650;-71
2024/02/25 04:11:09;;;;;;;5.40;4.00;;;5.90;99.90;;;;;;5072800;28;20228;-72
2024/02/25 04:13:34;;;;;;;4.20;4.00;;;5.90;99.90;;;;;;5072538;28;20235;-72
2024/02/25 04:16:00;;;;;;;4.00;3.70;;;5.90;99.90;;;;;;5072693;28;20254;-72
2024/02/25 04:18:25;;;;;;;3.77;3.57;;;5.90;99.90;;;;;;5055594;28;20687;-72
2024/02/25 04:20:51;;;;;;;4.57;4.27;;;5.90;99.90;;;;;;5052536;28;20206;-72
2024/02/25 04:23:18;;;;;;;4.80;3.67;;;5.90;99.90;;;;;;5053361;28;20667;-71
2024/02/25 04:25:43;;;;;;;3.80;3.60;;;5.90;99.90;;;;;;5052661;28;20191;-71
2024/02/25 04:28:09;;;;;;;4.23;3.93;;;6.00;99.90;;;;;;5052480;28;20610;-71
2024/02/25 04:30:35;;;;;;;3.90;3.60;;;5.90;99.90;;;;;;5052445;28;20229;-72
2024/02/25 04:33:00;;;;;;;5.00;4.47;;;5.90;99.90;;;;;;5052242;28;20171;-71
2024/02/25 04:35:27;;;;;;;4.07;3.87;;;5.90;99.90;;;;;;5052180;28;20687;-71
2024/02/25 04:37:52;;;;;;;3.73;3.53;;;5.90;99.90;;;;;;5052353;28;20163;-72
2024/02/25 04:40:18;;;;;;;3.93;3.67;;;5.90;99.90;;;;;;5047043;28;20202;-71
2024/02/25 04:42:44;;;;;;;3.70;3.50;;;5.80;99.90;;;;;;5072233;28;20190;-71
2024/02/25 04:45:10;;;;;;;3.50;3.30;;;5.80;99.90;;;;;;5071917;28;20658;-72
2024/02/25 04:47:36;;;;;;;4.00;3.80;;;5.80;99.90;;;;;;5071993;28;20194;-72
2024/02/25 04:50:05;;;;;;;5.67;4.67;;;5.80;99.90;;;;;;5071942;28;20179;-72
2024/02/25 04:52:31;;;;;;;8.23;5.60;;;5.80;99.90;;;;;;5071324;28;20315;-72
2024/02/25 04:54:56;;;;;;;5.87;4.43;;;5.80;99.90;;;;;;5072076;28;20654;-72
2024/02/25 04:57:23;;;;;;;3.70;3.50;;;5.70;99.90;;;;;;5071839;28;20194;-72
2024/02/25 04:59:48;;;;;;;4.80;3.87;;;5.70;99.90;;;;;;5070920;28;20284;-72
2024/02/25 05:02:14;;;;;;;4.00;3.60;;;5.70;99.90;;;;;;5071822;28;20602;-72
2024/02/25 05:04:40;;;;;;;4.43;4.13;;;5.70;99.90;;;;;;5071920;28;20162;-72
2024/02/25 05:07:06;;;;;;;4.00;3.80;;;5.70;99.90;;;;;;5071490;28;20186;-72
2024/02/25 05:09:31;;;;;;;4.20;3.90;;;5.70;99.90;;;;;;5071545;28;20228;-72
2024/02/25 05:11:57;;;;;;;4.00;3.53;;;5.70;99.90;;;;;;5071687;28;20178;-72
2024/02/25 05:14:22;;;;;;;3.80;3.60;;;5.70;99.90;;;;;;5064842;28;20179;-71
2024/02/25 05:16:51;;;;;;;3.93;3.73;;;5.60;99.90;;;;;;5051448;28;20281;-71
2024/02/25 05:19:17;;;;;;;4.40;3.80;;;5.50;99.90;;;;;;5051429;28;20216;-71
2024/02/25 05:21:43;;;;;;;4.50;4.20;;;5.50;99.90;;;;;;5063942;28;20719;-71
2024/02/25 05:24:09;;;;;;;4.40;4.10;;;5.50;99.90;;;;;;5071234;28;20182;-71
2024/02/25 05:26:34;;;;;;;4.00;3.80;;;5.50;99.90;;;;;;5071481;28;20251;-71
2024/02/25 05:29:00;;;;;;;4.60;4.30;;;5.40;99.90;;;;;;5071196;28;20642;-71
2024/02/25 05:31:26;;;;;;;4.97;4.53;;;5.40;99.90;;;;;;5071404;28;20204;-71
2024/02/25 05:33:52;;;;;;;4.00;3.70;;;5.40;99.90;;;;;;5071167;28;20182;-71
2024/02/25 05:36:20;;;;;;;4.10;3.90;;;5.40;99.90;;;;;;5059149;28;20211;-71
2024/02/25 05:38:46;;;;;;;4.27;3.97;;;5.40;99.90;;;;;;5051097;28;20229;-71
2024/02/25 05:41:12;;;;;;;4.13;3.93;;;5.40;99.90;;;;;;5051284;28;20195;-71
2024/02/25 05:43:38;;;;;;;4.23;3.90;;;5.40;99.90;;;;;;5051519;28;20643;-72
2024/02/25 05:46:03;;;;;;;4.93;4.40;;;5.40;99.90;;;;;;5062359;28;20237;-72
2024/02/25 05:48:29;;;;;;;4.43;4.10;;;5.40;99.90;;;;;;5068134;28;20186;-72
2024/02/25 05:50:55;;;;;;;4.80;4.50;;;5.40;99.90;;;;;;5051042;28;20174;-72
2024/02/25 05:53:20;;;;;;;5.43;4.93;;;5.30;99.90;;;;;;5050930;28;20206;-72
2024/02/25 05:55:47;;;;;;;4.53;4.23;;;5.40;99.90;;;;;;5050990;28;20209;-71
2024/02/25 05:58:13;;;;;;;3.90;3.70;;;5.40;99.90;;;;;;5052172;28;20175;-72
2024/02/25 06:00:39;;;;;;;4.80;4.07;;;5.40;99.90;;;;;;5071091;28;20700;-72
2024/02/25 06:03:05;;;;;;;3.80;3.60;;;5.40;99.90;;;;;;5070802;28;20173;-72
2024/02/25 06:05:30;;;;;;;4.10;3.87;;;5.40;99.90;;;;;;5071022;28;20216;-72
2024/02/25 06:08:00;;;;;;;3.70;3.50;;;5.40;99.90;;;;;;5071196;28;20214;-72
2024/02/25 06:10:25;;;;;;;4.27;3.97;;;5.40;99.90;;;;;;5071023;28;20253;-72
2024/02/25 06:12:51;;;;;;;3.80;3.60;;;5.40;99.90;;;;;;5070428;28;20325;-72
2024/02/25 06:15:17;;;;;;;4.03;3.83;;;5.50;99.90;;;;;;5050712;28;20221;-72
2024/02/25 06:17:43;;;;;;;4.10;3.80;;;5.50;99.90;;;;;;5063404;28;20247;-72
2024/02/25 06:20:10;;;;;;;3.80;3.60;;;5.50;99.90;;;;;;5070955;28;20520;-72
2024/02/25 06:22:40;;;;;;;4.07;3.77;;;5.50;99.90;;;;;;5070923;28;20174;-72
2024/02/25 06:25:07;;;;;;;3.80;3.60;;;5.50;99.90;;;;;;5071070;28;20167;-72
2024/02/25 06:27:37;;;;;;;3.60;3.50;;;5.50;99.90;;;;;;5070954;28;20651;-72
2024/02/25 06:30:06;;;;;;;3.90;3.70;;;5.60;99.90;;;;;;5070704;28;20571;-72
2024/02/25 06:32:33;;;;;;;3.90;3.70;;;5.60;99.90;;;;;;5071693;28;20188;-72
2024/02/25 06:34:59;;;;;;;4.03;3.77;;;5.60;99.90;;;;;;5074236;28;20261;-72
2024/02/25 06:37:31;;;;;;;3.70;3.50;;;5.70;99.90;;;;;;5074491;28;20824;-72
2024/02/25 06:39:57;;;;;;;3.90;3.70;;;5.70;99.90;;;;;;5074278;28;20593;-72
2024/02/25 06:42:22;;;;;;;4.10;3.90;;;5.70;99.90;;;;;;5074465;28;20635;-72
2024/02/25 06:44:48;;;;;;;4.03;3.73;;;5.70;99.90;;;;;;5068811;28;20254;-72
2024/02/25 06:47:14;;;;;;;3.80;3.60;;;5.70;99.90;;;;;;5053998;28;20222;-72
2024/02/25 06:49:43;;;;;;;3.70;3.50;;;5.80;99.90;;;;;;5054342;28;20178;-71
2024/02/25 06:52:09;;;;;;;3.50;3.30;;;5.80;99.90;;;;;;5053828;28;20171;-72
2024/02/25 06:54:35;;;;;;;3.80;3.60;;;5.80;99.90;;;;;;5053969;28;20186;-72
2024/02/25 06:57:00;;;;;;;4.17;3.80;;;5.80;99.90;;;;;;5053976;28;20199;-72
2024/02/25 06:59:26;;;;;;;3.80;3.60;;;5.80;99.90;;;;;;5057064;28;20702;-72
2024/02/25 07:01:51;;;;;;;3.90;3.70;;;5.80;99.90;;;;;;5054181;28;20296;-72
2024/02/25 07:04:18;;;;;;;3.93;3.60;;;5.90;99.90;;;;;;5053894;28;20257;-72
2024/02/25 07:06:43;;;;;;;4.30;4.00;;;5.90;99.90;;;;;;5054257;28;20253;-71
2024/02/25 07:09:09;;;;;;;3.80;3.60;;;6.00;99.90;;;;;;5053507;28;20659;-72
2024/02/25 07:11:35;;;;;;;3.83;3.63;;;6.00;99.90;;;;;;5053681;28;20171;-72
2024/02/25 07:14:00;;;;;;;3.70;3.50;;;6.10;99.90;;;;;;5054233;28;20570;-73
2024/02/25 07:16:26;;;;;;;3.50;3.40;;;6.10;99.90;;;;;;5073460;28;20234;-73
2024/02/25 07:18:52;;;;;;;3.53;3.30;;;6.20;99.90;;;;;;5073275;28;20267;-73
2024/02/25 07:21:18;;;;;;;3.80;3.60;;;6.30;99.90;;;;;;5073342;28;20220;-72
2024/02/25 07:23:43;;;;;;;3.80;3.60;;;6.30;99.90;;;;;;5075732;28;20177;-73
2024/02/25 07:26:11;;;;;;;3.87;3.43;;;6.30;99.90;;;;;;5076316;28;20222;-73
2024/02/25 07:28:41;;;;;;;3.50;3.30;;;6.40;99.90;;;;;;5043122;28;20201;-73
2024/02/25 07:31:17;;;;;;;3.97;3.63;;;6.40;99.90;;;;;;5055272;28;20246;-73
2024/02/25 07:33:44;;;;;;;3.33;3.23;;;6.40;99.90;;;;;;5055820;28;20198;-72
2024/02/25 07:36:13;;;;;;;3.73;3.43;;;6.50;99.90;;;;;;5055518;28;20277;-73
2024/02/25 07:38:40;;;;;;;3.47;3.27;;;6.50;99.90;;;;;;5062832;28;20194;-73
2024/02/25 07:41:07;;;;;;;4.10;3.90;;;6.60;99.90;;;;;;5066153;28;20167;-73
2024/02/25 07:43:34;;;;;;;3.53;3.33;;;6.70;99.90;;;;;;5052294;28;20175;-73
2024/02/25 07:46:00;;;;;;;3.10;2.90;;;6.80;99.90;;;;;;5035152;28;20675;-73
2024/02/25 07:48:25;;;;;;;3.33;3.23;;;6.80;99.90;;;;;;5053187;28;20175;-72
2024/02/25 07:50:51;;;;;;;3.13;3.03;;;6.90;99.90;;;;;;5052906;28;20563;-73
2024/02/25 07:53:17;;;;;;;3.27;3.17;;;6.90;99.90;;;;;;5052320;28;20262;-72
2024/02/25 07:55:42;;;;;;;3.30;3.20;;;6.90;99.90;;;;;;5052581;28;20206;-73
2024/02/25 07:58:08;;;;;;;3.30;3.10;;;7.00;99.90;;;;;;5052500;28;20183;-73
2024/02/25 08:00:34;;;;;;;3.10;3.00;;;7.00;99.90;;;;;;5062157;28;20202;-73
2024/02/25 08:03:00;;;;;;;3.37;3.17;;;7.00;99.90;;;;;;5075409;28;20631;-75
2024/02/25 08:05:26;;;;;;;3.77;3.50;;;7.10;99.90;;;;;;5069069;28;20195;-73
2024/02/25 08:07:53;;;;;;;3.70;3.50;;;7.10;99.90;;;;;;5055103;28;20210;-72
2024/02/25 08:10:19;;;;;;;3.60;3.40;;;7.20;99.90;;;;;;5071377;28;20178;-73
2024/02/25 08:12:46;;;;;;;3.20;3.10;;;7.20;99.90;;;;;;5075180;28;20308;-73
2024/02/25 08:15:12;;;;;;;3.53;3.23;;;7.20;99.90;;;;;;5074079;28;20224;-72
2024/02/25 08:17:38;;;;;;;3.10;2.90;;;7.30;99.90;;;;;;5072371;28;20251;-73
2024/02/25 08:20:04;;;;;;;3.20;3.10;;;7.40;99.90;;;;;;5071864;28;20229;-73
2024/02/25 08:22:36;;;;;;;3.07;2.97;;;7.50;99.90;;;;;;5072454;28;20173;-73
2024/02/25 08:25:02;;;;;;;3.30;3.10;;;7.50;99.90;;;;;;5055938;28;20194;-73
2024/02/25 08:27:32;;;;;;;3.40;3.20;;;7.60;99.90;;;;;;5052655;28;20167;-72
2024/02/25 08:30:05;;;;;;;3.07;2.90;;;7.70;99.90;;;;;;5052123;28;20186;-74
2024/02/25 08:32:32;;;;;;;3.40;3.10;;;8.10;99.90;;;;;;5052257;28;20166;-72
2024/02/25 08:34:57;;;;;;;3.30;3.10;;;8.70;99.90;;;;;;5052040;28;20561;-73
2024/02/25 08:37:27;;;;;;;3.37;3.17;;;9.20;99.90;;;;;;5064137;28;20210;-73
2024/02/25 08:39:53;;;;;;;3.67;3.37;;;9.70;99.90;;;;;;5073300;28;20198;-74
2024/02/25 08:42:19;;;;;;;3.10;2.90;;;10.00;99.90;;;;;;5076384;28;20162;-73
2024/02/25 08:44:46;;;;;;;5.77;3.20;;;10.10;99.90;;;;;;5071651;28;20186;-73
2024/02/25 08:47:11;;;;;;;3.47;3.17;;;10.10;99.90;;;;;;5072331;28;20559;-74
2024/02/25 08:49:37;;;;;;;3.60;3.30;;;9.90;99.90;;;;;;5064257;28;20244;-73
2024/02/25 08:52:10;;;;;;;3.73;3.40;;;9.70;99.90;;;;;;5051474;28;20240;-72
2024/02/25 08:54:39;;;;;;;3.20;2.90;;;9.60;99.90;;;;;;5051042;28;20166;-74
2024/02/25 08:57:08;;;;;;;3.87;3.57;;;9.40;99.90;;;;;;5053103;28;20191;-71
2024/02/25 08:59:33;;;;;;;4.77;4.37;;;9.30;99.90;;;;;;5055389;28;20202;-72
2024/02/25 09:02:04;;;;;;;3.97;3.67;;;9.20;99.90;;;;;;5057306;28;20163;-72
2024/02/25 09:04:31;;;;;;;4.87;3.77;;;9.10;99.90;;;;;;5059302;28;20529;-72
2024/02/25 09:07:00;;;;;;;3.80;3.50;;;9.10;99.90;;;;;;5072979;28;20193;-72
2024/02/25 09:09:29;;;;;;;3.10;3.00;;;9.10;99.90;;;;;;5065817;28;20179;-73
2024/02/25 09:11:55;;;;;;;3.83;3.53;;;9.10;99.90;;;;;;5052325;28;20576;-72
2024/02/25 09:14:20;;;;;;;3.90;3.60;;;9.10;99.90;;;;;;5063635;28;20174;-72
2024/02/25 09:16:46;;;;;;;3.50;3.30;;;9.20;99.90;;;;;;5053425;28;20262;-72
2024/02/25 09:19:12;;;;;;;3.50;3.10;;;9.40;99.90;;;;;;5051409;28;20648;-73
2024/02/25 09:21:38;;;;;;;3.80;3.13;;;9.50;99.90;;;;;;5051211;28;20254;-74
2024/02/25 09:24:04;;;;;;;3.37;3.10;;;9.60;99.90;;;;;;5058316;28;20202;-72
2024/02/25 09:26:30;;;;;;;3.30;3.10;;;9.70;99.90;;;;;;5059798;28;20186;-73
2024/02/25 09:28:56;;;;;;;4.93;3.90;;;9.90;99.90;;;;;;5056303;28;20229;-74
2024/02/25 09:31:21;;;;;;;3.80;3.50;;;10.20;99.90;;;;;;5060163;28;20181;-73
2024/02/25 09:33:52;;;;;;;3.00;2.70;;;10.60;99.90;;;;;;5079462;28;20547;-72
2024/02/25 09:36:23;;;;;;;2.90;2.70;;;11.20;99.90;;;;;;5074605;28;20213;-73
2024/02/25 09:38:50;;;;;;;2.60;2.40;;;11.60;99.90;;;;;;5079880;28;20201;-73
2024/02/25 09:41:21;;;;;;;2.80;2.60;;;11.80;99.90;;;;;;5076040;28;20166;-72
2024/02/25 09:43:51;;;;;;;2.57;2.47;;;11.70;99.90;;;;;;5070978;28;20173;-72
2024/02/25 09:46:18;;;;;;;3.00;2.80;;;11.70;99.90;;;;;;5058477;28;20730;-72
2024/02/25 09:48:48;;;;;;;2.40;2.30;;;11.80;99.90;;;;;;5051185;28;20163;-72
2024/02/25 09:51:14;;;;;;;2.40;2.20;;;12.20;99.90;;;;;;5051809;28;20254;-73
2024/02/25 09:53:42;;;;;;;2.77;2.57;;;12.70;99.90;;;;;;5051187;28;20175;-72
2024/02/25 09:56:09;;;;;;;4.97;2.20;;;12.80;99.60;;;;;;5051189;28;20217;-73
2024/02/25 09:58:35;;;;;;;2.27;2.07;;;13.00;97.50;;;;;;5052321;28;20206;-73
2024/02/25 10:01:00;;;;;;;2.50;2.30;;;13.40;98.00;;;;;;5051281;28;20209;-72
2024/02/25 10:03:26;;;;;;;2.60;2.40;;;13.80;96.20;;;;;;5050725;28;20163;-72
2024/02/25 10:05:55;;;;;;;2.30;2.20;;;13.50;92.60;;;;;;5052847;28;20206;-72
2024/02/25 10:08:21;;;;;;;2.10;2.00;;;13.20;93.40;;;;;;5040634;28;20232;-73
2024/02/25 10:10:46;;;;;;;3.43;2.43;;;13.30;93.30;;;;;;5055253;28;20532;-73
2024/02/25 10:13:12;;;;;;;3.00;2.30;;;13.20;92.20;;;;;;5059798;28;20650;-73
2024/02/25 10:15:39;;;;;;;2.60;2.40;;;13.00;92.10;;;;;;5075078;28;20239;-71
2024/02/25 10:18:05;;;;;;;3.67;2.60;;;12.60;92.40;;;;;;5074879;28;20250;-72
2024/02/25 10:20:31;;;;;;;2.37;2.27;;;12.20;92.20;;;;;;5083171;28;20252;-73
2024/02/25 10:23:11;;;;;;;3.20;2.50;;;12.00;93.30;;;;;;5076592;28;20170;-72
2024/02/25 10:25:39;;;;;;;2.50;2.40;;;11.70;94.50;;;;;;5074651;28;20186;-72
2024/02/25 10:28:16;;;;;;;2.60;2.50;;;11.50;95.20;;;;;;5056455;28;20228;-72
2024/02/25 10:30:58;;;;;;;2.60;2.40;;;11.40;94.90;;;;;;5054765;28;20190;-72
2024/02/25 10:33:24;;;;;;;2.90;2.70;;;11.20;96.50;;;;;;5054334;28;20554;-72
2024/02/25 10:35:52;;;;;;;2.73;2.63;;;11.20;97.50;;;;;;5054487;28;20210;-73
2024/02/25 10:38:20;;;;;;;2.67;2.53;;;11.00;95.40;;;;;;5054400;28;20203;-73
2024/02/25 10:40:48;;;;;;;2.63;2.53;;;10.90;96.30;;;;;;5072528;28;20201;-73
2024/02/25 10:43:14;;;;;;;2.80;2.60;;;10.90;96.30;;;;;;5073954;28;20638;-72
2024/02/25 10:45:45;;;;;;;2.70;2.50;;;11.00;96.70;;;;;;5074181;28;20194;-73
2024/02/25 10:48:13;;;;;;;2.83;2.63;;;11.40;96.90;;;;;;5073955;28;20166;-73
2024/02/25 10:50:40;;;;;;;2.50;2.30;;;11.80;97.50;;;;;;5079318;28;20222;-72
2024/02/25 10:53:10;;;;;;;3.43;2.40;;;12.10;94.50;;;;;;5073942;28;20173;-73
2024/02/25 10:55:37;;;;;;;2.40;2.30;;;12.40;93.30;;;;;;5055138;28;20226;-72
2024/02/25 10:58:05;;;;;;;2.90;2.70;;;12.30;91.20;;;;;;5054011;28;20167;-72
2024/02/25 11:00:31;;;;;;;2.43;2.23;;;12.30;92.70;;;;;;5073750;28;20198;-71
2024/02/25 11:02:59;;;;;;;2.77;2.57;;;12.30;92.70;;;;;;5073774;28;20177;-71
2024/02/25 11:05:24;;;;;;;2.50;2.30;;;12.20;92.60;;;;;;5073366;28;20198;-73
2024/02/25 11:07:50;;;;;;;2.63;2.30;;;12.40;92.50;;;;;;5073971;28;20166;-72
2024/02/25 11:10:21;;;;;;;2.77;2.60;;;12.30;91.50;;;;;;5073946;28;20182;-72
2024/02/25 11:12:53;;;;;;;3.30;3.00;;;12.00;91.60;;;;;;5072739;28;20214;-72
2024/02/25 11:15:20;;;;;;;3.10;2.90;;;11.80;92.50;;;;;;5074997;28;20235;-73
2024/02/25 11:17:49;;;;;;;3.03;2.60;;;11.70;94.70;;;;;;5055046;28;20257;-71
2024/02/25 11:20:20;;;;;;;2.80;2.60;;;11.90;94.30;;;;;;5073125;28;20290;-71
2024/02/25 11:22:47;;;;;;;2.70;2.50;;;11.80;94.40;;;;;;5071725;28;20205;-71
2024/02/25 11:25:32;;;;;;;2.90;2.70;;;11.90;94.80;;;;;;5073289;28;20253;-71
2024/02/25 11:28:01;;;;;;;2.80;2.40;;;11.70;93.40;;;;;;5073405;28;20220;-72
2024/02/25 11:30:36;;;;;;;2.83;2.60;;;11.70;93.20;;;;;;5068801;28;20178;-72
2024/02/25 11:33:22;;;;;;;3.23;2.80;;;11.60;92.60;;;;;;5053000;28;20206;-71
2024/02/25 11:35:50;;;;;;;2.60;2.40;;;11.50;92.90;;;;;;5052911;28;20218;-72
2024/02/25 11:38:21;;;;;;;2.50;2.40;;;11.50;93.80;;;;;;5052952;28;20526;-72
2024/02/25 11:40:48;;;;;;;2.70;2.50;;;11.50;93.40;;;;;;5053184;28;20175;-71
2024/02/25 11:43:13;;;;;;;3.80;2.60;;;11.60;94.90;;;;;;5052776;28;20220;-72
2024/02/25 11:45:39;;;;;;;2.73;2.50;;;11.60;94.20;;;;;;5054169;28;20203;-71
2024/02/25 11:48:05;;;;;;;2.83;2.60;;;11.60;93.90;;;;;;5053134;28;20170;-72
2024/02/25 11:50:30;;;;;;;2.67;2.47;;;11.60;92.80;;;;;;5061265;28;20213;-73
2024/02/25 11:53:00;;;;;;;2.60;2.40;;;11.50;93.30;;;;;;5072982;28;20643;-71
2024/02/25 11:55:26;;;;;;;2.43;2.33;;;11.40;92.40;;;;;;5072950;28;20189;-71
2024/02/25 11:57:53;;;;;;;2.93;2.67;;;11.40;93.20;;;;;;5072979;28;20174;-72
2024/02/25 12:00:19;;;;;;;2.90;2.70;;;11.30;93.80;;;;;;5072609;28;20206;-71
2024/02/25 12:02:45;;;;;;;2.93;2.70;;;11.30;94.10;;;;;;5072874;28;20265;-70
2024/02/25 12:05:11;;;;;;;2.50;2.40;;;11.30;93.90;;;;;;5070432;28;20192;-71
2024/02/25 12:07:37;;;;;;;2.50;2.40;;;11.30;95.10;;;;;;5073227;28;20212;-72
2024/02/25 12:10:03;;;;;;;2.70;2.50;;;11.50;95.30;;;;;;5072573;28;20166;-72
2024/02/25 12:12:29;;;;;;;2.60;2.50;;;11.50;94.90;;;;;;5075757;28;20560;-71
2024/02/25 12:14:59;;;;;;;2.93;2.73;;;11.60;95.40;;;;;;5060329;28;20195;-71
2024/02/25 12:17:25;;;;;;;2.50;2.40;;;11.70;94.90;;;;;;5070933;28;20206;-73
2024/02/25 12:19:53;;;;;;;2.70;2.50;;;11.70;93.40;;;;;;5071846;28;20578;-72
2024/02/25 12:22:22;;;;;;;2.67;2.47;;;11.60;92.60;;;;;;5072156;28;20208;-72
2024/02/25 12:24:53;;;;;;;3.40;2.70;;;11.60;93.30;;;;;;5072459;28;20457;-72
2024/02/25 12:27:22;;;;;;;2.50;2.30;;;11.70;92.80;;;;;;5072277;28;20331;-73
2024/02/25 12:29:50;;;;;;;2.50;2.40;;;11.80;91.80;;;;;;5060141;28;20672;-73
2024/02/25 12:32:16;;;;;;;3.00;2.50;;;11.90;91.50;;;;;;5052552;28;20179;-72
2024/02/25 12:34:43;;;;;;;2.57;2.47;;;12.00;90.80;;;;;;5053252;28;20171;-72
2024/02/25 12:37:13;;;;;;;3.03;2.83;;;12.00;90.60;;;;;;5056364;28;20223;-72
2024/02/25 12:39:42;;;;;;;2.93;2.20;;;12.10;92.10;;;;;;5052656;28;20202;-72
2024/02/25 12:42:09;;;;;;;2.30;2.20;;;12.20;91.40;;;;;;5052273;28;20175;-72
2024/02/25 12:44:38;;;;;;;2.83;2.40;;;12.20;90.10;;;;;;5052924;28;20186;-72
2024/02/25 12:47:04;;;;;;;2.60;2.40;;;12.30;90.10;;;;;;5052123;28;20597;-72
2024/02/25 12:49:29;;;;;;;2.60;2.40;;;12.30;88.60;;;;;;5051917;28;20193;-72
2024/02/25 12:51:56;;;;;;;2.30;2.20;;;12.30;88.70;;;;;;5051938;28;20229;-75